createdAt,value
2022-12-23T00:01:27.923Z,19.30
2022-12-23T00:04:00.087Z,19.30
2022-12-23T00:06:28.812Z,19.29
2022-12-23T00:08:59.370Z,19.29
2022-12-23T00:11:29.253Z,19.29
2022-12-23T00:14:21.201Z,19.28
2022-12-23T00:16:51.450Z,19.27
2022-12-23T00:19:21.424Z,19.28
2022-12-23T00:21:49.892Z,19.27
2022-12-23T00:24:18.289Z,19.25
2022-12-23T00:26:46.721Z,19.26
2022-12-23T00:29:15.181Z,19.27
2022-12-23T00:31:43.606Z,19.26
2022-12-23T00:34:12.879Z,19.27
2022-12-23T00:36:42.721Z,19.25
2022-12-23T00:39:30.550Z,19.27
2022-12-23T00:42:16.615Z,19.26
2022-12-23T00:44:45.320Z,19.25
2022-12-23T00:47:34.997Z,19.25
2022-12-23T00:50:02.537Z,19.25
2022-12-23T00:52:32.954Z,19.25
2022-12-23T00:55:01.376Z,19.25
2022-12-23T00:57:29.806Z,19.24
2022-12-23T00:59:58.257Z,19.25
2022-12-23T01:02:56.184Z,19.24
2022-12-23T01:05:48.154Z,19.25
2022-12-23T01:08:17.991Z,19.24
2022-12-23T01:10:46.393Z,19.25
2022-12-23T01:13:14.877Z,19.25
2022-12-23T01:15:43.379Z,19.24
2022-12-23T01:18:11.881Z,19.23
2022-12-23T01:20:40.676Z,19.24
2022-12-23T01:23:09.215Z,19.24
2022-12-23T01:25:39.021Z,19.24
2022-12-23T01:28:07.458Z,19.23
2022-12-23T01:30:35.906Z,19.23
2022-12-23T01:33:04.817Z,19.23
2022-12-23T01:35:33.271Z,19.23
2022-12-23T01:38:01.674Z,19.22
2022-12-23T01:40:35.895Z,19.24
2022-12-23T01:43:04.697Z,19.22
2022-12-23T01:45:34.275Z,19.22
2022-12-23T01:48:06.215Z,19.21
2022-12-23T01:50:37.820Z,19.22
2022-12-23T01:53:09.391Z,19.21
2022-12-23T01:55:43.234Z,19.22
2022-12-23T01:58:16.963Z,19.21
2022-12-23T02:01:02.882Z,19.21
2022-12-23T02:03:43.516Z,19.22
2022-12-23T02:06:33.847Z,19.20
2022-12-23T02:09:20.720Z,19.18
2022-12-23T02:12:17.328Z,19.20
2022-12-23T02:15:24.899Z,19.21
2022-12-23T02:18:07.047Z,19.20
2022-12-23T02:21:14.034Z,19.20
2022-12-23T02:24:31.127Z,19.21
2022-12-23T02:27:19.510Z,19.22
2022-12-23T02:30:21.535Z,19.20
2022-12-23T02:33:03.987Z,19.19
2022-12-23T02:35:42.175Z,19.22
2022-12-23T02:38:14.019Z,19.21
2022-12-23T02:40:53.509Z,19.21
2022-12-23T02:43:32.485Z,19.22
2022-12-23T02:46:08.829Z,19.22
2022-12-23T02:48:44.979Z,19.22
2022-12-23T02:51:15.620Z,19.22
2022-12-23T02:53:48.820Z,19.22
2022-12-23T02:56:19.682Z,19.23
2022-12-23T02:59:05.971Z,19.23
2022-12-23T03:01:36.782Z,19.23
2022-12-23T03:04:06.910Z,19.23
2022-12-23T03:06:39.816Z,19.23
2022-12-23T03:09:09.044Z,19.23
2022-12-23T03:11:46.866Z,19.23
2022-12-23T03:14:32.667Z,19.23
2022-12-23T03:17:14.475Z,19.23
2022-12-23T03:19:51.045Z,19.23
2022-12-23T03:22:25.412Z,19.23
2022-12-23T03:25:02.681Z,19.21
2022-12-23T03:27:37.065Z,19.23
2022-12-23T03:30:08.463Z,19.23
2022-12-23T03:32:44.753Z,19.24
2022-12-23T03:35:17.165Z,19.23
2022-12-23T03:37:49.758Z,19.23
2022-12-23T03:40:23.654Z,19.24
2022-12-23T03:42:57.739Z,19.24
2022-12-23T03:45:39.816Z,19.22
2022-12-23T03:48:15.825Z,19.23
2022-12-23T03:50:46.809Z,19.22
2022-12-23T03:53:19.657Z,19.23
2022-12-23T03:55:53.373Z,19.22
2022-12-23T03:58:31.822Z,19.22
2022-12-23T04:01:05.717Z,19.23
2022-12-23T04:03:43.084Z,19.21
2022-12-23T04:06:16.826Z,19.22
2022-12-23T04:08:48.906Z,19.22
2022-12-23T04:11:17.732Z,19.23
2022-12-23T04:13:48.199Z,19.23
2022-12-23T04:16:17.117Z,19.23
2022-12-23T04:18:47.044Z,19.22
2022-12-23T04:21:15.870Z,19.22
2022-12-23T04:23:44.309Z,19.23
2022-12-23T04:26:12.738Z,19.23
2022-12-23T04:28:41.164Z,19.23
2022-12-23T04:31:09.608Z,19.23
2022-12-23T04:33:38.160Z,19.23
2022-12-23T04:36:08.310Z,19.21
2022-12-23T04:38:36.813Z,19.22
2022-12-23T04:41:05.588Z,19.22
2022-12-23T04:43:34.021Z,19.22
2022-12-23T04:46:02.455Z,19.23
2022-12-23T04:48:30.882Z,19.21
2022-12-23T04:51:02.607Z,19.22
2022-12-23T04:53:32.372Z,19.22
2022-12-23T04:56:00.747Z,19.22
2022-12-23T04:58:29.194Z,19.23
2022-12-23T05:01:05.826Z,19.22
2022-12-23T05:03:34.482Z,19.20
2022-12-23T05:06:03.272Z,19.23
2022-12-23T05:08:33.501Z,19.28
2022-12-23T05:11:02.042Z,19.35
2022-12-23T05:13:30.424Z,19.46
2022-12-23T05:15:58.856Z,19.61
2022-12-23T05:18:27.325Z,19.80
2022-12-23T05:20:56.303Z,19.99
2022-12-23T05:23:24.794Z,20.16
2022-12-23T05:25:55.398Z,20.26
2022-12-23T05:28:24.307Z,20.40
2022-12-23T05:30:59.121Z,20.52
2022-12-23T05:33:27.821Z,20.62
2022-12-23T05:35:56.523Z,20.72
2022-12-23T05:38:25.362Z,20.77
2022-12-23T05:40:55.417Z,20.80
2022-12-23T05:43:24.147Z,20.83
2022-12-23T05:45:53.129Z,20.83
2022-12-23T05:48:21.926Z,20.81
2022-12-23T05:50:51.328Z,20.82
2022-12-23T05:53:20.782Z,20.85
2022-12-23T05:55:49.193Z,20.88
2022-12-23T05:58:19.162Z,20.91
2022-12-23T06:00:47.691Z,20.93
2022-12-23T06:03:16.246Z,20.92
2022-12-23T06:05:44.782Z,20.92
2022-12-23T06:08:13.208Z,20.93
2022-12-23T06:10:41.590Z,20.96
2022-12-23T06:13:10.129Z,20.98
2022-12-23T06:15:40.036Z,20.99
2022-12-23T06:18:08.538Z,20.95
2022-12-23T06:20:36.987Z,20.93
2022-12-23T06:23:05.418Z,20.88
2022-12-23T06:25:33.854Z,20.83
2022-12-23T06:28:02.323Z,20.79
2022-12-23T06:30:30.813Z,20.79
2022-12-23T06:33:00.628Z,20.86
2022-12-23T06:35:29.188Z,20.91
2022-12-23T06:37:57.719Z,20.94
2022-12-23T06:40:28.348Z,20.99
2022-12-23T06:42:56.779Z,21.01
2022-12-23T06:45:25.210Z,21.04
2022-12-23T06:47:53.709Z,21.05
2022-12-23T06:50:23.546Z,21.05
2022-12-23T06:52:52.047Z,21.04
2022-12-23T06:55:20.477Z,21.01
2022-12-23T06:57:48.927Z,20.99
2022-12-23T07:00:18.081Z,20.97
2022-12-23T07:02:46.790Z,20.96
2022-12-23T07:05:15.499Z,20.99
2022-12-23T07:07:45.294Z,21.05
2022-12-23T07:10:14.007Z,21.06
2022-12-23T07:12:47.442Z,21.09
2022-12-23T07:15:19.266Z,21.08
2022-12-23T07:17:47.667Z,21.11
2022-12-23T07:20:16.851Z,21.10
2022-12-23T07:22:47.516Z,21.08
2022-12-23T07:25:16.253Z,21.12
2022-12-23T07:27:44.701Z,21.15
2022-12-23T07:30:13.626Z,21.18
2022-12-23T07:32:42.127Z,21.22
2022-12-23T07:35:10.849Z,21.21
2022-12-23T07:37:39.375Z,21.22
2022-12-23T07:40:10.785Z,21.22
2022-12-23T07:42:47.221Z,21.21
2022-12-23T07:45:15.898Z,21.19
2022-12-23T07:47:44.340Z,21.20
2022-12-23T07:50:13.172Z,21.21
2022-12-23T07:52:41.510Z,21.19
2022-12-23T07:55:11.459Z,21.21
2022-12-23T07:57:40.666Z,21.22
2022-12-23T08:00:11.513Z,21.17
2022-12-23T08:02:43.266Z,21.14
2022-12-23T08:05:12.630Z,21.12
2022-12-23T08:07:41.213Z,21.12
2022-12-23T08:10:12.090Z,21.11
2022-12-23T08:12:40.563Z,21.10
2022-12-23T08:15:10.302Z,21.07
2022-12-23T08:17:38.804Z,21.04
2022-12-23T08:20:08.512Z,21.02
2022-12-23T08:22:37.088Z,21.02
2022-12-23T08:25:06.688Z,21.04
2022-12-23T08:27:36.662Z,21.06
2022-12-23T08:30:05.909Z,21.08
2022-12-23T08:32:34.418Z,21.11
2022-12-23T08:35:02.816Z,21.13
2022-12-23T08:37:31.191Z,21.14
2022-12-23T08:39:59.616Z,21.12
2022-12-23T08:42:28.083Z,21.10
2022-12-23T08:44:57.892Z,21.11
2022-12-23T08:47:26.345Z,21.01
2022-12-23T08:49:54.765Z,20.94
2022-12-23T08:52:23.166Z,20.87
2022-12-23T08:54:51.742Z,20.87
2022-12-23T08:57:20.224Z,20.84
2022-12-23T08:59:48.750Z,20.85
2022-12-23T09:02:18.700Z,20.85
2022-12-23T09:04:47.316Z,20.85
2022-12-23T09:07:15.809Z,20.84
2022-12-23T09:09:44.275Z,20.85
2022-12-23T09:12:12.943Z,20.83
2022-12-23T09:14:41.358Z,20.82
2022-12-23T09:17:09.843Z,20.81
2022-12-23T09:19:39.589Z,20.78
2022-12-23T09:22:07.986Z,20.74
2022-12-23T09:24:37.492Z,20.74
2022-12-23T09:27:05.924Z,20.72
2022-12-23T09:29:34.315Z,20.71
2022-12-23T09:32:02.809Z,20.68
2022-12-23T09:34:31.377Z,20.67
2022-12-23T09:37:01.091Z,20.63
2022-12-23T09:39:29.459Z,20.63
2022-12-23T09:42:06.835Z,20.62
2022-12-23T09:44:50.837Z,20.62
2022-12-23T09:47:23.503Z,20.60
2022-12-23T09:49:55.920Z,20.59
2022-12-23T09:52:35.022Z,20.57
2022-12-23T09:55:03.512Z,20.58
2022-12-23T09:57:37.149Z,20.55
2022-12-23T10:00:12.071Z,20.54
2022-12-23T10:02:50.821Z,20.52
2022-12-23T10:05:30.908Z,20.53
2022-12-23T10:08:04.852Z,20.51
2022-12-23T10:10:39.926Z,20.50
2022-12-23T10:13:15.330Z,20.48
2022-12-23T10:15:49.169Z,20.47
2022-12-23T10:18:25.883Z,20.46
2022-12-23T10:20:58.894Z,20.44
2022-12-23T10:23:33.236Z,20.42
2022-12-23T10:26:08.712Z,20.42
2022-12-23T10:28:37.201Z,20.42
2022-12-23T10:34:11.307Z,20.40
2022-12-23T10:36:51.191Z,20.38
2022-12-23T10:39:29.251Z,20.39
2022-12-23T10:42:08.327Z,20.38
2022-12-23T10:45:10.654Z,20.37
2022-12-23T10:47:50.065Z,20.36
2022-12-23T10:50:36.868Z,20.37
2022-12-23T10:53:11.351Z,20.38
2022-12-23T10:55:41.305Z,20.37
2022-12-23T10:58:15.480Z,20.41
2022-12-23T11:00:50.196Z,20.40
2022-12-23T11:03:23.274Z,20.40
2022-12-23T11:05:54.323Z,20.38
2022-12-23T11:08:25.256Z,20.38
2022-12-23T11:10:55.857Z,20.37
2022-12-23T11:13:27.500Z,20.37
2022-12-23T11:16:11.829Z,20.36
2022-12-23T11:18:53.670Z,20.35
2022-12-23T11:21:22.440Z,20.35
2022-12-23T11:24:07.755Z,20.34
2022-12-23T11:26:37.969Z,20.34
2022-12-23T11:29:10.321Z,20.33
2022-12-23T11:31:39.293Z,20.33
2022-12-23T11:34:16.577Z,20.32
2022-12-23T11:36:48.919Z,20.29
2022-12-23T11:39:27.390Z,20.26
2022-12-23T11:42:05.347Z,20.22
2022-12-23T11:44:37.054Z,20.19
2022-12-23T11:47:24.827Z,20.18
2022-12-23T11:49:55.212Z,20.15
2022-12-23T11:52:25.936Z,20.14
2022-12-23T11:54:56.254Z,20.10
2022-12-23T11:57:34.725Z,20.09
2022-12-23T12:00:07.610Z,20.09
2022-12-23T12:02:39.244Z,20.04
2022-12-23T12:05:20.764Z,20.05
2022-12-23T12:07:50.838Z,20.03
2022-12-23T12:10:22.114Z,20.02
2022-12-23T12:12:56.740Z,20.00
2022-12-23T12:15:33.672Z,19.99
2022-12-23T12:18:06.539Z,19.98
2022-12-23T12:20:38.776Z,19.97
2022-12-23T12:23:14.069Z,19.96
2022-12-23T12:25:48.021Z,19.95
2022-12-23T12:28:20.465Z,19.95
2022-12-23T12:30:56.750Z,19.94
2022-12-23T12:33:33.542Z,19.93
2022-12-23T12:36:12.337Z,19.92
2022-12-23T12:38:41.257Z,19.91
2022-12-23T12:41:17.509Z,19.91
2022-12-23T12:43:53.615Z,19.90
2022-12-23T12:46:31.741Z,19.89
2022-12-23T12:49:04.699Z,19.88
2022-12-23T12:51:40.563Z,19.86
2022-12-23T12:54:16.833Z,19.86
2022-12-23T12:56:49.428Z,19.83
2022-12-23T12:59:22.267Z,19.83
2022-12-23T13:02:05.124Z,19.82
2022-12-23T13:05:15.252Z,19.78
2022-12-23T13:07:56.090Z,19.78
2022-12-23T13:10:36.439Z,19.76
2022-12-23T13:13:16.560Z,19.75
2022-12-23T13:15:53.012Z,19.75
2022-12-23T13:18:34.168Z,19.73
2022-12-23T13:21:09.200Z,19.71
2022-12-23T13:23:46.656Z,19.70
2022-12-23T13:26:24.950Z,19.70
2022-12-23T13:29:03.259Z,19.69
2022-12-23T13:31:47.470Z,19.69
2022-12-23T13:34:32.727Z,19.69
2022-12-23T13:37:12.368Z,19.67
2022-12-23T13:39:51.994Z,19.67
2022-12-23T13:42:29.157Z,19.66
2022-12-23T13:44:59.764Z,19.66
2022-12-23T13:47:42.954Z,19.65
2022-12-23T13:50:18.507Z,19.65
2022-12-23T13:53:02.722Z,19.64
2022-12-23T13:55:48.155Z,19.63
2022-12-23T13:58:19.910Z,19.62
2022-12-23T14:00:58.521Z,19.62
2022-12-23T14:03:34.919Z,19.61
2022-12-23T14:06:22.378Z,19.61
2022-12-23T14:08:52.648Z,19.61
2022-12-23T14:11:25.004Z,19.61
2022-12-23T14:13:58.659Z,19.60
2022-12-23T14:16:38.355Z,19.60
2022-12-23T14:19:31.092Z,19.60
2022-12-23T14:22:12.936Z,19.60
2022-12-23T14:25:06.936Z,19.60
2022-12-23T14:27:51.080Z,19.59
2022-12-23T14:30:25.249Z,19.57
2022-12-23T14:32:54.560Z,19.59
2022-12-23T14:35:27.998Z,19.58
2022-12-23T14:38:11.368Z,19.59
2022-12-23T14:40:54.472Z,19.59
2022-12-23T14:43:32.125Z,19.58
2022-12-23T14:46:01.849Z,19.58
2022-12-23T14:49:37.589Z,19.59
2022-12-23T14:51:57.794Z,19.65
2022-12-23T14:54:39.522Z,19.65
2022-12-23T14:57:16.814Z,19.72
2022-12-23T14:59:51.379Z,19.75
2022-12-23T15:02:23.603Z,19.78
2022-12-23T15:04:56.000Z,19.78
2022-12-23T15:07:31.762Z,19.81
2022-12-23T15:10:02.029Z,19.82
2022-12-23T15:12:33.861Z,19.84
2022-12-23T15:15:05.709Z,19.86
2022-12-23T15:17:36.788Z,19.87
2022-12-23T15:20:13.830Z,19.89
2022-12-23T15:22:45.495Z,19.92
2022-12-23T15:25:22.753Z,19.93
2022-12-23T15:27:59.094Z,19.92
2022-12-23T15:30:33.884Z,19.92
2022-12-23T15:33:16.109Z,19.94
2022-12-23T15:35:54.580Z,19.97
2022-12-23T15:38:29.219Z,19.97
2022-12-23T15:40:59.089Z,19.96
2022-12-23T15:43:27.542Z,19.99
2022-12-23T15:45:56.010Z,20.01
2022-12-23T15:48:25.939Z,20.02
2022-12-23T15:50:58.812Z,20.03
2022-12-23T15:53:33.083Z,20.03
2022-12-23T15:56:07.059Z,20.05
2022-12-23T15:58:38.779Z,20.06
2022-12-23T16:01:08.543Z,20.06
2022-12-23T16:03:41.055Z,20.10
2022-12-23T16:06:17.111Z,20.12
2022-12-23T16:08:56.257Z,20.15
2022-12-23T16:11:25.259Z,20.18
2022-12-23T16:13:59.118Z,20.19
2022-12-23T16:16:32.756Z,20.21
2022-12-23T16:19:01.536Z,20.24
2022-12-23T16:21:33.078Z,20.25
2022-12-23T16:24:08.194Z,20.22
2022-12-23T16:26:41.742Z,20.18
2022-12-23T16:29:12.465Z,20.15
2022-12-23T16:31:48.211Z,20.13
2022-12-23T16:34:20.801Z,20.11
2022-12-23T16:36:49.594Z,20.07
2022-12-23T16:39:22.507Z,20.08
2022-12-23T16:41:51.091Z,20.08
2022-12-23T16:44:19.542Z,20.12
2022-12-23T16:46:50.564Z,20.12
2022-12-23T16:49:21.341Z,20.12
2022-12-23T16:51:50.108Z,20.10
2022-12-23T16:54:21.465Z,20.12
2022-12-23T16:56:49.982Z,20.08
2022-12-23T16:59:18.542Z,20.12
2022-12-23T17:01:48.919Z,20.10
2022-12-23T17:04:17.671Z,20.08
2022-12-23T17:06:46.547Z,20.08
2022-12-23T17:09:15.382Z,20.07
2022-12-23T17:11:47.876Z,20.07
2022-12-23T17:14:19.140Z,20.06
2022-12-23T17:16:47.899Z,20.05
2022-12-23T17:19:20.503Z,20.03
2022-12-23T17:21:58.822Z,20.02
2022-12-23T17:24:28.283Z,20.02
2022-12-23T17:26:58.465Z,20.01
2022-12-23T17:29:27.003Z,20.01
2022-12-23T17:31:55.714Z,19.99
2022-12-23T17:34:25.754Z,19.99
2022-12-23T17:36:54.458Z,19.96
2022-12-23T17:39:23.460Z,19.97
2022-12-23T17:41:52.233Z,19.97
2022-12-23T17:44:22.026Z,19.97
2022-12-23T17:46:52.685Z,19.95
2022-12-23T17:49:21.176Z,19.93
2022-12-23T17:51:49.594Z,19.94
2022-12-23T17:54:23.622Z,19.94
2022-12-23T17:56:52.129Z,19.95
2022-12-23T17:59:23.106Z,19.93
2022-12-23T18:01:51.743Z,19.93
2022-12-23T18:04:21.367Z,19.93
2022-12-23T18:06:49.800Z,19.92
2022-12-23T18:09:19.293Z,19.90
2022-12-23T18:11:48.072Z,19.91
2022-12-23T18:14:23.276Z,19.91
2022-12-23T18:16:53.230Z,19.92
2022-12-23T18:19:22.509Z,19.92
2022-12-23T18:21:52.270Z,19.99
2022-12-23T18:24:20.704Z,20.10
2022-12-23T18:26:49.225Z,20.23
2022-12-23T18:29:18.541Z,20.37
2022-12-23T18:31:51.490Z,20.46
2022-12-23T18:34:22.162Z,20.52
2022-12-23T18:36:51.936Z,20.55
2022-12-23T18:39:21.064Z,20.55
2022-12-23T18:41:49.716Z,20.61
2022-12-23T18:44:19.585Z,20.67
2022-12-23T18:46:48.514Z,20.75
2022-12-23T18:49:17.094Z,20.83
2022-12-23T18:51:47.339Z,20.94
2022-12-23T18:54:16.584Z,21.01
2022-12-23T18:56:45.476Z,21.11
2022-12-23T18:59:21.382Z,21.18
2022-12-23T19:01:56.400Z,21.27
2022-12-23T19:04:25.164Z,21.38
2022-12-23T19:06:55.636Z,21.48
2022-12-23T19:09:25.683Z,21.56
2022-12-23T19:11:54.783Z,21.63
2022-12-23T19:14:23.747Z,21.66
2022-12-23T19:16:52.953Z,21.68
2022-12-23T19:19:21.612Z,21.71
2022-12-23T19:21:50.176Z,21.77
2022-12-23T19:24:20.078Z,21.82
2022-12-23T19:26:48.745Z,21.86
2022-12-23T19:29:17.208Z,21.90
2022-12-23T19:31:45.690Z,21.92
2022-12-23T19:34:15.970Z,21.92
2022-12-23T19:36:45.153Z,21.93
2022-12-23T19:39:16.682Z,21.94
2022-12-23T19:41:46.984Z,21.98
2022-12-23T19:44:15.656Z,22.01
2022-12-23T19:46:44.371Z,22.04
2022-12-23T19:49:19.163Z,22.03
2022-12-23T19:51:48.507Z,22.03
2022-12-23T19:54:17.386Z,22.01
2022-12-23T19:56:47.329Z,22.01
2022-12-23T19:59:16.051Z,22.01
2022-12-23T20:01:45.523Z,22.04
2022-12-23T20:04:14.656Z,22.05
2022-12-23T20:06:43.766Z,22.09
2022-12-23T20:09:14.328Z,22.11
2022-12-23T20:11:44.526Z,22.13
2022-12-23T20:14:16.400Z,22.12
2022-12-23T20:16:45.463Z,22.12
2022-12-23T20:19:14.421Z,22.10
2022-12-23T20:21:42.862Z,22.09
2022-12-23T20:24:11.394Z,22.10
2022-12-23T20:26:40.502Z,22.12
2022-12-23T20:29:10.118Z,22.15
2022-12-23T20:31:40.285Z,22.18
2022-12-23T20:34:14.362Z,22.23
2022-12-23T20:36:43.011Z,22.21
2022-12-23T20:39:11.642Z,22.21
2022-12-23T20:41:40.272Z,22.23
2022-12-23T20:44:33.802Z,22.22
2022-12-23T20:46:58.734Z,22.19
2022-12-23T20:49:27.511Z,22.14
2022-12-23T20:51:56.025Z,22.08
2022-12-23T20:54:31.579Z,22.01
2022-12-23T20:57:01.068Z,21.92
2022-12-23T20:59:29.640Z,21.83
2022-12-23T21:01:59.871Z,21.77
2022-12-23T21:04:28.717Z,21.68
2022-12-23T21:06:57.204Z,21.62
2022-12-23T21:09:25.705Z,21.57
2022-12-23T21:11:54.182Z,21.50
2022-12-23T21:14:22.792Z,21.45
2022-12-23T21:16:51.546Z,21.40
2022-12-23T21:19:23.232Z,21.36
2022-12-23T21:21:53.071Z,21.32
2022-12-23T21:24:22.007Z,21.27
2022-12-23T21:26:56.544Z,21.23
2022-12-23T21:29:26.132Z,21.21
2022-12-23T21:31:55.308Z,21.15
2022-12-23T21:34:25.515Z,21.12
2022-12-23T21:36:54.123Z,21.06
2022-12-23T21:39:22.629Z,21.02
2022-12-23T21:41:52.600Z,20.97
2022-12-23T21:44:21.193Z,20.92
2022-12-23T21:46:51.377Z,20.90
2022-12-23T21:49:20.638Z,20.87
2022-12-23T21:51:51.566Z,20.82
2022-12-23T21:54:20.356Z,20.80
2022-12-23T21:56:48.871Z,20.78
2022-12-23T21:59:17.435Z,20.76
2022-12-23T22:01:45.993Z,20.72
2022-12-23T22:04:14.447Z,20.68
2022-12-23T22:06:44.888Z,20.63
2022-12-23T22:09:17.170Z,20.61
2022-12-23T22:11:46.638Z,20.58
2022-12-23T22:14:17.275Z,20.57
2022-12-23T22:16:45.893Z,20.54
2022-12-23T22:19:14.705Z,20.52
2022-12-23T22:21:43.393Z,20.52
2022-12-23T22:24:12.181Z,20.50
2022-12-23T22:26:42.287Z,20.48
2022-12-23T22:29:12.094Z,20.46
2022-12-23T22:31:42.893Z,20.45
2022-12-23T22:34:14.477Z,20.42
2022-12-23T22:36:43.405Z,20.42
2022-12-23T22:39:19.962Z,20.40
2022-12-23T22:41:52.169Z,20.38
2022-12-23T22:44:21.256Z,20.37
2022-12-23T22:46:51.901Z,20.35
2022-12-23T22:49:20.777Z,20.34
2022-12-23T22:51:49.274Z,20.34
2022-12-23T22:54:17.842Z,20.31
2022-12-23T22:56:46.719Z,20.30
2022-12-23T22:59:22.391Z,20.28
2022-12-23T23:01:52.250Z,20.28
2022-12-23T23:04:21.382Z,20.27
2022-12-23T23:06:49.912Z,20.27
2022-12-23T23:09:21.192Z,20.25
2022-12-23T23:11:50.211Z,20.24
2022-12-23T23:14:20.606Z,20.22
2022-12-23T23:16:49.100Z,20.21
2022-12-23T23:19:20.325Z,20.21
2022-12-23T23:21:49.743Z,20.20
2022-12-23T23:24:18.270Z,20.18
2022-12-23T23:26:46.708Z,20.19
2022-12-23T23:29:15.377Z,20.18
2022-12-23T23:31:45.418Z,20.17
2022-12-23T23:34:14.314Z,20.16
2022-12-23T23:36:42.953Z,20.15
2022-12-23T23:39:12.908Z,20.15
2022-12-23T23:41:41.934Z,20.14
2022-12-23T23:44:11.125Z,20.13
2022-12-23T23:46:39.759Z,20.10
2022-12-23T23:49:09.694Z,20.12
2022-12-23T23:51:38.935Z,20.11
2022-12-23T23:54:07.515Z,20.09
2022-12-23T23:56:39.225Z,20.09
2022-12-23T23:59:08.746Z,20.08
